Time;durP1;ratioP1;P1;durP2;ratioP2;P2;SDS_P1;SDS_P2;PMS_P1;PMS_P2;Temp;Humidity;BMP_temperature;BMP_pressure;BME280_temperature;BME280_humidity;BME280_pressure;Samples;Min_cycle;Max_cycle;Signal;HPM_P1;HPM_P2
2023/12/04 00:01:48;;;;;;;7.03;4.07;;;;;;;;;;5092602;28;20337;-76
2023/12/04 00:04:15;;;;;;;7.10;3.97;;;;;;;;;;5092876;28;20289;-76
2023/12/04 00:06:44;;;;;;;5.93;4.00;;;;;;;;;;5092849;28;20220;-76
2023/12/04 00:09:11;;;;;;;6.37;3.80;;;;;;;;;;5092269;28;20207;-76
2023/12/04 00:11:38;;;;;;;6.13;4.13;;;;;;;;;;5092482;28;20279;-76
2023/12/04 00:14:05;;;;;;;5.80;4.10;;;;;;;;;;5092561;28;20730;-76
2023/12/04 00:16:35;;;;;;;5.67;3.90;;;;;;;;;;5092571;28;20832;-76
2023/12/04 00:19:02;;;;;;;6.70;4.07;;;;;;;;;;5092344;28;20204;-76
2023/12/04 00:21:29;;;;;;;6.00;3.83;;;;;;;;;;5092381;28;20213;-75
2023/12/04 00:23:58;;;;;;;5.47;3.83;;;;;;;;;;5091739;28;20288;-76
2023/12/04 00:26:25;;;;;;;5.87;3.90;;;;;;;;;;5092436;28;20291;-76
2023/12/04 00:28:52;;;;;;;6.63;4.53;;;;;;;;;;5091952;28;20726;-76
2023/12/04 00:31:19;;;;;;;5.47;3.87;;;;;;;;;;5092145;28;20296;-76
2023/12/04 00:33:48;;;;;;;7.57;4.23;;;;;;;;;;5092011;28;20205;-76
2023/12/04 00:36:15;;;;;;;5.37;3.73;;;;;;;;;;5091581;28;20206;-75
2023/12/04 00:38:42;;;;;;;5.27;3.73;;;;;;;;;;5091643;28;20220;-76
2023/12/04 00:41:10;;;;;;;6.23;4.13;;;;;;;;;;5092038;28;20232;-76
2023/12/04 00:43:38;;;;;;;5.30;3.90;;;;;;;;;;5091998;28;20224;-76
2023/12/04 00:46:05;;;;;;;7.00;3.93;;;;;;;;;;5091746;28;20287;-76
2023/12/04 00:48:32;;;;;;;5.90;4.10;;;;;;;;;;5092076;28;20289;-75
2023/12/04 00:50:59;;;;;;;5.70;4.27;;;;;;;;;;5092054;28;20288;-77
2023/12/04 00:53:26;;;;;;;5.37;4.17;;;;;;;;;;5091538;28;20204;-76
2023/12/04 00:55:53;;;;;;;5.37;3.73;;;;;;;;;;5091844;28;20329;-76
2023/12/04 00:58:22;;;;;;;7.73;4.10;;;;;;;;;;5091125;28;20288;-76
2023/12/04 01:00:51;;;;;;;5.00;3.80;;;;;;;;;;5092193;28;20236;-76
2023/12/04 01:03:18;;;;;;;5.60;4.00;;;;;;;;;;5091768;28;20202;-76
2023/12/04 01:05:46;;;;;;;6.10;4.27;;;;;;;;;;5091633;28;20289;-76
2023/12/04 01:08:13;;;;;;;6.17;4.13;;;;;;;;;;5090852;28;20660;-76
2023/12/04 01:10:40;;;;;;;5.57;3.83;;;;;;;;;;5091352;28;20290;-76
2023/12/04 01:13:07;;;;;;;6.87;3.83;;;;;;;;;;5091504;28;20207;-76
2023/12/04 01:15:36;;;;;;;6.30;4.00;;;;;;;;;;5091714;28;20226;-76
2023/12/04 01:18:03;;;;;;;6.33;4.07;;;;;;;;;;5091381;28;20297;-77
2023/12/04 01:20:33;;;;;;;6.37;4.00;;;;;;;;;;5091534;28;20197;-76
2023/12/04 01:23:00;;;;;;;6.07;4.07;;;;;;;;;;5091493;28;20194;-76
2023/12/04 01:25:27;;;;;;;6.03;4.50;;;;;;;;;;5091329;28;20710;-76
2023/12/04 01:27:54;;;;;;;5.53;4.13;;;;;;;;;;5091166;28;21053;-76
2023/12/04 01:30:21;;;;;;;5.70;3.70;;;;;;;;;;5091762;28;20280;-75
2023/12/04 01:32:50;;;;;;;5.97;4.00;;;;;;;;;;5091505;28;20232;-77
2023/12/04 01:35:18;;;;;;;6.13;4.07;;;;;;;;;;5091080;28;20320;-75
2023/12/04 01:37:45;;;;;;;4.73;3.80;;;;;;;;;;5092382;28;20190;-77
2023/12/04 01:40:13;;;;;;;5.30;3.93;;;;;;;;;;5098063;28;20196;-76
2023/12/04 01:42:40;;;;;;;5.93;4.20;;;;;;;;;;5097512;28;20288;-76
2023/12/04 01:45:08;;;;;;;7.07;4.77;;;;;;;;;;5097943;28;20217;-76
2023/12/04 01:47:35;;;;;;;6.17;4.30;;;;;;;;;;5097551;28;20219;-76
2023/12/04 01:50:04;;;;;;;7.43;4.20;;;;;;;;;;5098068;28;20228;-76
2023/12/04 01:52:31;;;;;;;6.43;4.47;;;;;;;;;;5097141;28;20212;-76
2023/12/04 01:54:59;;;;;;;6.97;4.03;;;;;;;;;;5097919;28;20253;-76
2023/12/04 01:57:26;;;;;;;6.13;4.00;;;;;;;;;;5097751;28;20296;-76
2023/12/04 01:59:53;;;;;;;7.00;4.27;;;;;;;;;;5097571;28;20329;-76
2023/12/04 02:02:21;;;;;;;6.00;3.80;;;;;;;;;;5097724;28;20194;-76
2023/12/04 02:04:48;;;;;;;6.83;4.30;;;;;;;;;;5097845;28;20208;-76
2023/12/04 02:07:16;;;;;;;7.83;4.03;;;;;;;;;;5097322;28;20633;-76
2023/12/04 02:09:44;;;;;;;5.73;4.17;;;;;;;;;;5097960;28;20293;-76
2023/12/04 02:12:11;;;;;;;8.07;4.13;;;;;;;;;;5097507;28;20226;-76
2023/12/04 02:14:39;;;;;;;6.07;4.47;;;;;;;;;;5097866;28;20282;-76
2023/12/04 02:17:07;;;;;;;7.60;4.40;;;;;;;;;;5097780;28;20297;-76
2023/12/04 02:19:34;;;;;;;7.23;4.73;;;;;;;;;;5097406;28;20280;-76
2023/12/04 02:22:01;;;;;;;6.60;4.50;;;;;;;;;;5097501;28;20666;-76
2023/12/04 02:24:31;;;;;;;6.97;4.27;;;;;;;;;;5097413;28;20285;-75
2023/12/04 02:27:00;;;;;;;7.60;4.33;;;;;;;;;;5097457;28;20195;-75
2023/12/04 02:29:31;;;;;;;6.00;4.33;;;;;;;;;;5097550;28;20261;-75
2023/12/04 02:31:58;;;;;;;7.00;4.43;;;;;;;;;;5097675;28;20280;-76
2023/12/04 02:34:26;;;;;;;6.70;4.83;;;;;;;;;;5096742;28;20391;-76
2023/12/04 02:36:54;;;;;;;7.23;4.63;;;;;;;;;;5097211;28;20676;-76
2023/12/04 02:39:22;;;;;;;6.77;4.73;;;;;;;;;;5097109;28;20661;-76
2023/12/04 02:41:52;;;;;;;6.67;4.70;;;;;;;;;;5097365;28;20696;-75
2023/12/04 02:44:19;;;;;;;6.90;4.73;;;;;;;;;;5097901;28;20198;-76
2023/12/04 02:46:46;;;;;;;6.47;4.73;;;;;;;;;;5097693;28;20300;-75
2023/12/04 02:49:14;;;;;;;8.50;5.10;;;;;;;;;;5095590;28;20289;-75
2023/12/04 02:51:42;;;;;;;7.50;4.70;;;;;;;;;;5094078;28;20284;-76
2023/12/04 02:54:09;;;;;;;6.93;4.97;;;;;;;;;;5094045;28;20675;-75
2023/12/04 02:56:36;;;;;;;6.33;4.63;;;;;;;;;;5093901;28;20224;-75
2023/12/04 02:59:05;;;;;;;8.17;4.93;;;;;;;;;;5094567;28;20194;-76
2023/12/04 03:01:32;;;;;;;8.70;5.50;;;;;;;;;;5093580;28;20269;-76
2023/12/04 03:03:59;;;;;;;8.97;5.50;;;;;;;;;;5093753;28;20304;-75
2023/12/04 03:06:26;;;;;;;9.80;5.53;;;;;;;;;;5093640;28;20744;-76
2023/12/04 03:08:53;;;;;;;8.60;5.53;;;;;;;;;;5093670;28;20746;-76
2023/12/04 03:11:21;;;;;;;7.57;4.87;;;;;;;;;;5093776;28;20284;-75
2023/12/04 03:13:48;;;;;;;9.50;5.47;;;;;;;;;;5093643;28;20233;-76
2023/12/04 03:16:20;;;;;;;7.33;5.07;;;;;;;;;;5094057;28;20597;-75
2023/12/04 03:18:47;;;;;;;9.80;5.70;;;;;;;;;;5093434;28;20203;-76
2023/12/04 03:21:15;;;;;;;7.33;5.00;;;;;;;;;;5093322;28;20287;-75
2023/12/04 03:23:42;;;;;;;8.50;5.00;;;;;;;;;;5093115;28;20296;-76
2023/12/04 03:26:09;;;;;;;7.00;5.03;;;;;;;;;;5093683;28;20292;-75
2023/12/04 03:28:36;;;;;;;8.60;5.70;;;;;;;;;;5093324;28;20195;-75
2023/12/04 03:31:03;;;;;;;6.93;5.10;;;;;;;;;;5093484;28;20294;-76
2023/12/04 03:33:32;;;;;;;7.17;5.30;;;;;;;;;;5093231;28;20282;-77
2023/12/04 03:36:00;;;;;;;7.97;5.40;;;;;;;;;;5093394;28;20232;-75
2023/12/04 03:38:27;;;;;;;9.50;5.70;;;;;;;;;;5093171;28;20290;-76
2023/12/04 03:40:55;;;;;;;8.13;5.40;;;;;;;;;;5093167;28;20245;-75
2023/12/04 03:43:22;;;;;;;7.60;5.17;;;;;;;;;;5093107;28;20233;-76
2023/12/04 03:45:49;;;;;;;9.23;4.73;;;;;;;;;;5084073;28;20277;-75
2023/12/04 03:48:16;;;;;;;7.47;5.23;;;;;;;;;;5078130;28;20566;-76
2023/12/04 03:50:45;;;;;;;7.63;4.93;;;;;;;;;;5073060;28;20195;-76
2023/12/04 03:53:12;;;;;;;8.50;5.07;;;;;;;;;;5072624;28;20199;-75
2023/12/04 03:55:39;;;;;;;7.97;5.53;;;;;;;;;;5072596;28;20231;-76
2023/12/04 03:58:06;;;;;;;6.57;4.77;;;;;;;;;;5072741;28;20286;-76
2023/12/04 04:00:33;;;;;;;7.00;5.57;;;;;;;;;;5071672;28;20292;-75
2023/12/04 04:03:00;;;;;;;7.03;4.87;;;;;;;;;;5072772;28;20194;-76
2023/12/04 04:05:28;;;;;;;6.70;5.20;;;;;;;;;;5072306;28;20309;-75
2023/12/04 04:07:56;;;;;;;8.10;4.90;;;;;;;;;;5072347;28;20261;-76
2023/12/04 04:10:24;;;;;;;6.30;4.70;;;;;;;;;;5072283;28;20286;-75
2023/12/04 04:12:51;;;;;;;7.83;4.90;;;;;;;;;;5072152;28;20199;-76
2023/12/04 04:15:18;;;;;;;8.93;4.97;;;;;;;;;;5072226;28;20199;-75
2023/12/04 04:17:45;;;;;;;8.40;4.93;;;;;;;;;;5072136;28;20241;-75
2023/12/04 04:20:14;;;;;;;7.13;5.33;;;;;;;;;;5072146;28;20608;-76
2023/12/04 04:22:41;;;;;;;8.03;5.10;;;;;;;;;;5072321;28;20195;-75
2023/12/04 04:25:10;;;;;;;8.20;5.20;;;;;;;;;;5071841;28;20229;-76
2023/12/04 04:27:37;;;;;;;7.13;4.97;;;;;;;;;;5072210;28;20225;-75
2023/12/04 04:30:05;;;;;;;7.13;5.27;;;;;;;;;;5071540;28;20282;-76
2023/12/04 04:32:32;;;;;;;7.77;5.73;;;;;;;;;;5071983;28;20294;-76
2023/12/04 04:34:59;;;;;;;9.63;5.20;;;;;;;;;;5076984;28;20666;-76
2023/12/04 04:37:26;;;;;;;7.60;4.93;;;;;;;;;;5092412;28;20635;-75
2023/12/04 04:39:54;;;;;;;7.97;5.17;;;;;;;;;;5092039;28;20852;-75
2023/12/04 04:42:22;;;;;;;8.73;4.93;;;;;;;;;;5092116;28;20218;-75
2023/12/04 04:44:49;;;;;;;7.30;5.40;;;;;;;;;;5092118;28;20205;-76
2023/12/04 04:47:17;;;;;;;8.03;5.07;;;;;;;;;;5092396;28;20230;-76
2023/12/04 04:49:44;;;;;;;7.50;4.53;;;;;;;;;;5091641;28;20216;-75
2023/12/04 04:52:11;;;;;;;8.13;5.10;;;;;;;;;;5091633;28;20671;-75
2023/12/04 04:54:38;;;;;;;8.37;5.37;;;;;;;;;;5091727;28;20745;-76
2023/12/04 04:57:05;;;;;;;6.37;4.70;;;;;;;;;;5091897;28;20232;-76
2023/12/04 04:59:34;;;;;;;6.53;5.10;;;;;;;;;;5091441;28;20651;-75
2023/12/04 05:02:01;;;;;;;11.00;5.70;;;;;;;;;;5092250;28;20217;-75
2023/12/04 05:04:28;;;;;;;8.93;4.90;;;;;;;;;;5091447;28;20281;-75
2023/12/04 05:06:55;;;;;;;6.83;4.73;;;;;;;;;;5091486;28;20223;-76
2023/12/04 05:09:22;;;;;;;8.37;4.90;;;;;;;;;;5091411;28;20297;-76
2023/12/04 05:11:50;;;;;;;6.13;4.60;;;;;;;;;;5083679;28;20282;-76
2023/12/04 05:14:17;;;;;;;7.67;4.70;;;;;;;;;;5076013;28;20742;-76
2023/12/04 05:16:45;;;;;;;8.73;5.10;;;;;;;;;;5083640;28;20229;-76
2023/12/04 05:19:12;;;;;;;7.37;4.80;;;;;;;;;;5091003;28;20195;-76
2023/12/04 05:21:40;;;;;;;6.83;4.57;;;;;;;;;;5071206;28;20223;-76
2023/12/04 05:24:07;;;;;;;6.43;4.53;;;;;;;;;;5071638;28;20298;-76
2023/12/04 05:26:34;;;;;;;7.43;4.77;;;;;;;;;;5071092;28;20733;-76
2023/12/04 05:29:01;;;;;;;6.47;3.83;;;;;;;;;;5070901;28;20297;-76
2023/12/04 05:31:28;;;;;;;8.97;3.90;;;;;;;;;;5071196;28;20622;-76
2023/12/04 05:33:57;;;;;;;11.27;4.80;;;;;;;;;;5070912;28;20702;-75
2023/12/04 05:36:24;;;;;;;10.90;4.20;;;;;;;;;;5088269;28;20661;-76
2023/12/04 05:38:53;;;;;;;8.07;4.50;;;;;;;;;;5091380;28;20285;-76
2023/12/04 05:41:20;;;;;;;7.40;4.20;;;;;;;;;;5091110;28;20666;-76
2023/12/04 05:43:47;;;;;;;10.63;4.60;;;;;;;;;;5090905;28;20285;-76
2023/12/04 05:46:15;;;;;;;9.60;4.70;;;;;;;;;;5090692;28;20275;-76
2023/12/04 05:48:42;;;;;;;6.10;4.23;;;;;;;;;;5090846;28;20281;-76
2023/12/04 05:51:12;;;;;;;9.17;5.00;;;;;;;;;;5091199;28;20280;-75
2023/12/04 05:53:39;;;;;;;6.80;5.03;;;;;;;;;;5090902;28;20195;-77
2023/12/04 05:56:08;;;;;;;9.73;4.80;;;;;;;;;;5091489;28;20194;-75
2023/12/04 05:58:35;;;;;;;7.70;5.00;;;;;;;;;;5090717;28;20666;-77
2023/12/04 06:01:03;;;;;;;9.10;4.97;;;;;;;;;;5090705;28;20908;-77
2023/12/04 06:03:30;;;;;;;8.43;5.57;;;;;;;;;;5091084;28;20206;-76
2023/12/04 06:05:57;;;;;;;11.03;5.23;;;;;;;;;;5091289;28;20228;-77
2023/12/04 06:08:26;;;;;;;7.13;4.77;;;;;;;;;;5091091;28;20218;-77
2023/12/04 06:10:53;;;;;;;5.70;4.20;;;;;;;;;;5090968;28;20646;-78
2023/12/04 06:13:20;;;;;;;8.77;5.00;;;;;;;;;;5090613;28;20201;-77
2023/12/04 06:15:47;;;;;;;8.43;4.80;;;;;;;;;;5091228;28;20297;-77
2023/12/04 06:18:15;;;;;;;8.03;5.50;;;;;;;;;;5091200;28;20301;-76
2023/12/04 06:20:42;;;;;;;8.40;5.40;;;;;;;;;;5091161;28;20721;-76
2023/12/04 06:23:09;;;;;;;7.57;4.57;;;;;;;;;;5090931;28;20603;-75
2023/12/04 06:25:38;;;;;;;8.97;4.83;;;;;;;;;;5094050;28;20273;-76
2023/12/04 06:28:06;;;;;;;8.27;4.93;;;;;;;;;;5094461;28;20194;-76
2023/12/04 06:30:33;;;;;;;7.20;4.87;;;;;;;;;;5094738;28;20699;-76
2023/12/04 06:33:01;;;;;;;8.70;5.03;;;;;;;;;;5095012;28;20290;-76
2023/12/04 06:35:28;;;;;;;7.40;5.13;;;;;;;;;;5094479;28;20745;-76
2023/12/04 06:37:55;;;;;;;9.67;4.83;;;;;;;;;;5094304;28;20634;-76
2023/12/04 06:40:23;;;;;;;9.13;5.37;;;;;;;;;;5094435;28;20364;-76
2023/12/04 06:42:52;;;;;;;10.37;4.73;;;;;;;;;;5093293;28;20285;-76
2023/12/04 06:45:20;;;;;;;9.23;5.27;;;;;;;;;;5093633;28;20645;-76
2023/12/04 06:47:47;;;;;;;9.00;4.77;;;;;;;;;;5093295;28;20226;-78
2023/12/04 06:50:14;;;;;;;8.77;5.13;;;;;;;;;;5093746;28;20277;-77
2023/12/04 06:52:42;;;;;;;8.20;4.30;;;;;;;;;;5094026;28;20280;-77
2023/12/04 06:55:09;;;;;;;12.00;5.80;;;;;;;;;;5082088;28;20204;-77
2023/12/04 06:57:36;;;;;;;11.80;5.33;;;;;;;;;;5073759;28;20290;-77
2023/12/04 07:00:07;;;;;;;12.97;5.10;;;;;;;;;;5073865;28;20322;-77
2023/12/04 07:02:34;;;;;;;7.73;4.80;;;;;;;;;;5074106;28;20195;-76
2023/12/04 07:05:03;;;;;;;10.77;4.53;;;;;;;;;;5074077;28;20284;-77
2023/12/04 07:07:30;;;;;;;10.57;5.70;;;;;;;;;;5073645;28;20787;-77
2023/12/04 07:09:57;;;;;;;10.13;4.77;;;;;;;;;;5073759;28;20241;-76
2023/12/04 07:12:24;;;;;;;9.77;4.37;;;;;;;;;;5074052;28;20203;-77
2023/12/04 07:14:51;;;;;;;9.47;4.50;;;;;;;;;;5073673;28;20706;-76
2023/12/04 07:17:21;;;;;;;9.60;4.30;;;;;;;;;;5073734;28;20632;-77
2023/12/04 07:19:48;;;;;;;7.77;4.50;;;;;;;;;;5074045;28;20689;-77
2023/12/04 07:22:15;;;;;;;10.50;4.60;;;;;;;;;;5073808;28;20284;-76
2023/12/04 07:24:42;;;;;;;12.43;4.67;;;;;;;;;;5073317;28;20199;-76
2023/12/04 07:27:10;;;;;;;10.17;4.60;;;;;;;;;;5073290;28;20231;-77
2023/12/04 07:29:38;;;;;;;11.97;4.80;;;;;;;;;;5073496;28;20207;-77
2023/12/04 07:32:06;;;;;;;11.70;5.13;;;;;;;;;;5073449;28;20203;-77
2023/12/04 07:34:34;;;;;;;9.13;4.37;;;;;;;;;;5075627;28;20195;-77
2023/12/04 07:37:02;;;;;;;9.20;4.53;;;;;;;;;;5092983;28;20285;-77
2023/12/04 07:39:29;;;;;;;13.17;4.97;;;;;;;;;;5093392;28;20198;-77
2023/12/04 07:41:56;;;;;;;10.40;5.30;;;;;;;;;;5093416;28;20302;-77
2023/12/04 07:44:24;;;;;;;14.30;5.20;;;;;;;;;;5093621;28;20734;-77
2023/12/04 07:46:51;;;;;;;10.10;5.10;;;;;;;;;;5092925;28;20318;-77
2023/12/04 07:49:18;;;;;;;11.67;5.17;;;;;;;;;;5093775;28;20218;-77
2023/12/04 07:51:46;;;;;;;12.63;5.10;;;;;;;;;;5093451;28;20636;-78
2023/12/04 07:54:14;;;;;;;9.50;4.33;;;;;;;;;;5093132;28;20293;-78
2023/12/04 07:56:42;;;;;;;10.23;4.70;;;;;;;;;;5093486;28;20218;-76
2023/12/04 07:59:09;;;;;;;9.13;4.10;;;;;;;;;;5093237;28;20194;-77
2023/12/04 08:01:36;;;;;;;10.10;4.37;;;;;;;;;;5093059;28;20258;-77
2023/12/04 08:04:03;;;;;;;12.30;4.30;;;;;;;;;;5093516;28;20636;-77
2023/12/04 08:06:31;;;;;;;11.57;4.47;;;;;;;;;;5092977;28;20796;-77
2023/12/04 08:08:59;;;;;;;15.73;4.63;;;;;;;;;;5092854;28;20230;-77
2023/12/04 08:11:26;;;;;;;8.40;4.07;;;;;;;;;;5093056;28;20293;-77
2023/12/04 08:13:53;;;;;;;12.60;3.60;;;;;;;;;;5092721;28;20674;-77
2023/12/04 08:16:20;;;;;;;8.80;3.73;;;;;;;;;;5092881;28;20237;-77
2023/12/04 08:18:48;;;;;;;10.33;4.03;;;;;;;;;;5092811;28;20206;-78
2023/12/04 08:21:15;;;;;;;8.33;3.50;;;;;;;;;;5092729;28;20230;-77
2023/12/04 08:23:42;;;;;;;9.63;3.37;;;;;;;;;;5092534;28;20199;-77
2023/12/04 08:26:10;;;;;;;7.33;3.20;;;;;;;;;;5092645;28;20683;-77
2023/12/04 08:28:41;;;;;;;9.43;3.50;;;;;;;;;;5092735;28;20646;-77
2023/12/04 08:31:09;;;;;;;9.47;3.30;;;;;;;;;;5092697;28;20248;-78
2023/12/04 08:33:36;;;;;;;7.67;3.27;;;;;;;;;;5092585;28;20199;-77
2023/12/04 08:36:03;;;;;;;7.00;3.50;;;;;;;;;;5092760;28;20297;-77
2023/12/04 08:38:30;;;;;;;7.53;3.50;;;;;;;;;;5092143;28;20198;-78
2023/12/04 08:40:58;;;;;;;9.07;3.47;;;;;;;;;;5092160;28;20285;-77
2023/12/04 08:43:26;;;;;;;6.47;3.30;;;;;;;;;;5074882;28;20568;-78
2023/12/04 08:45:53;;;;;;;10.27;3.27;;;;;;;;;;5092243;28;20229;-77
2023/12/04 08:48:20;;;;;;;11.10;3.37;;;;;;;;;;5091691;28;20318;-77
2023/12/04 08:50:49;;;;;;;11.53;3.53;;;;;;;;;;5092495;28;20562;-77
2023/12/04 08:53:16;;;;;;;8.50;3.80;;;;;;;;;;5091859;28;20281;-77
2023/12/04 08:55:44;;;;;;;7.97;3.03;;;;;;;;;;5091995;28;20201;-76
2023/12/04 08:58:11;;;;;;;8.37;3.67;;;;;;;;;;5092382;28;20198;-76
2023/12/04 09:00:42;;;;;;;10.03;3.80;;;;;;;;;;5091894;28;20233;-79
2023/12/04 09:03:10;;;;;;;9.33;3.73;;;;;;;;;;5092212;28;20285;-78
2023/12/04 09:05:37;;;;;;;10.97;3.90;;;;;;;;;;5091951;28;20199;-76
2023/12/04 09:08:04;;;;;;;10.43;3.50;;;;;;;;;;5092022;28;20230;-77
2023/12/04 09:10:31;;;;;;;8.40;3.20;;;;;;;;;;5091574;28;20212;-77
2023/12/04 09:12:59;;;;;;;9.00;3.60;;;;;;;;;;5092230;28;20286;-78
2023/12/04 09:15:26;;;;;;;11.17;3.80;;;;;;;;;;5092158;28;20225;-78
2023/12/04 09:17:54;;;;;;;8.47;3.37;;;;;;;;;;5091695;28;20285;-76
2023/12/04 09:20:21;;;;;;;7.87;3.67;;;;;;;;;;5091232;28;20606;-78
2023/12/04 09:22:49;;;;;;;7.43;3.50;;;;;;;;;;5092002;28;20281;-78
2023/12/04 09:25:16;;;;;;;8.43;3.23;;;;;;;;;;5091740;28;20682;-77
2023/12/04 09:27:43;;;;;;;10.77;4.13;;;;;;;;;;5091493;28;20261;-77
2023/12/04 09:30:11;;;;;;;9.10;3.70;;;;;;;;;;5091648;28;20567;-78
2023/12/04 09:32:38;;;;;;;10.97;4.10;;;;;;;;;;5092015;28;20203;-76
2023/12/04 09:35:07;;;;;;;7.10;3.47;;;;;;;;;;5091112;28;20281;-78
2023/12/04 09:37:34;;;;;;;11.83;3.10;;;;;;;;;;5091734;28;20682;-78
2023/12/04 09:40:02;;;;;;;14.40;3.03;;;;;;;;;;5091789;28;20654;-77
2023/12/04 09:42:29;;;;;;;11.00;3.10;;;;;;;;;;5091823;28;20549;-76
2023/12/04 09:44:57;;;;;;;9.50;2.60;;;;;;;;;;5091616;28;20233;-78
2023/12/04 09:47:25;;;;;;;11.53;2.10;;;;;;;;;;5091607;28;20222;-78
2023/12/04 09:49:53;;;;;;;11.20;2.20;;;;;;;;;;5091525;28;20190;-77
2023/12/04 09:52:22;;;;;;;9.43;2.43;;;;;;;;;;5091635;28;20191;-78
2023/12/04 09:54:49;;;;;;;11.57;2.40;;;;;;;;;;5091582;28;20282;-78
2023/12/04 09:57:17;;;;;;;8.30;2.27;;;;;;;;;;5091867;28;20289;-78
2023/12/04 09:59:45;;;;;;;5.13;2.23;;;;;;;;;;5093700;28;20367;-77
2023/12/04 10:02:13;;;;;;;5.23;2.07;;;;;;;;;;5095682;28;20199;-77
2023/12/04 10:04:40;;;;;;;5.13;2.00;;;;;;;;;;5094909;28;20276;-78
2023/12/04 10:07:08;;;;;;;7.83;2.27;;;;;;;;;;5095530;28;20724;-78
2023/12/04 10:09:36;;;;;;;5.10;1.87;;;;;;;;;;5095117;28;20651;-77
2023/12/04 10:12:03;;;;;;;9.77;3.33;;;;;;;;;;5095579;28;20564;-77
2023/12/04 10:14:31;;;;;;;6.03;3.20;;;;;;;;;;5095561;28;20285;-77
2023/12/04 10:16:59;;;;;;;9.37;4.13;;;;;;;;;;5095513;28;20198;-77
2023/12/04 10:19:26;;;;;;;11.73;5.43;;;;;;;;;;5095019;28;20202;-77
2023/12/04 10:21:53;;;;;;;12.83;5.70;;;;;;;;;;5095299;28;20260;-78
2023/12/04 10:24:31;;;;;;;11.63;5.93;;;;;;;;;;5095110;28;20281;-78
2023/12/04 10:27:00;;;;;;;11.33;5.67;;;;;;;;;;5094795;28;20728;-77
2023/12/04 10:29:29;;;;;;;8.17;4.67;;;;;;;;;;5095735;28;20277;-77
2023/12/04 10:31:56;;;;;;;9.77;4.83;;;;;;;;;;5094932;28;20798;-78
2023/12/04 10:34:25;;;;;;;10.37;4.90;;;;;;;;;;5094509;28;20289;-77
2023/12/04 10:36:53;;;;;;;10.00;4.60;;;;;;;;;;5095148;28;20294;-76
2023/12/04 10:39:20;;;;;;;8.40;3.73;;;;;;;;;;5094632;28;20244;-77
2023/12/04 10:42:00;;;;;;;10.50;3.77;;;;;;;;;;5094958;28;20281;-77
2023/12/04 10:44:29;;;;;;;7.47;3.30;;;;;;;;;;5095188;28;20198;-78
2023/12/04 10:46:58;;;;;;;11.33;2.63;;;;;;;;;;5094170;28;20203;-77
2023/12/04 10:49:28;;;;;;;9.50;2.60;;;;;;;;;;5094445;28;20741;-78
2023/12/04 10:51:57;;;;;;;9.33;2.60;;;;;;;;;;5094458;28;20199;-76
2023/12/04 10:54:24;;;;;;;10.53;3.10;;;;;;;;;;5094816;28;20190;-78
2023/12/04 10:56:53;;;;;;;10.43;2.90;;;;;;;;;;5094684;28;20191;-78
2023/12/04 10:59:23;;;;;;;6.73;3.30;;;;;;;;;;5094268;28;20226;-78
2023/12/04 11:01:54;;;;;;;13.93;3.97;;;;;;;;;;5094174;28;20329;-78
2023/12/04 11:04:23;;;;;;;18.50;7.23;;;;;;;;;;5094567;28;20199;-77
2023/12/04 11:06:51;;;;;;;13.20;5.80;;;;;;;;;;5094224;28;20593;-77
2023/12/04 11:09:20;;;;;;;14.60;3.60;;;;;;;;;;5094357;28;20233;-78
2023/12/04 11:11:49;;;;;;;12.73;4.40;;;;;;;;;;5093108;28;20595;-78
2023/12/04 11:14:20;;;;;;;13.07;4.60;;;;;;;;;;5094303;28;20194;-77
2023/12/04 11:16:49;;;;;;;10.97;3.00;;;;;;;;;;5093605;28;20202;-77
2023/12/04 11:19:20;;;;;;;10.13;3.37;;;;;;;;;;5093937;28;20671;-78
2023/12/04 11:21:47;;;;;;;11.03;2.93;;;;;;;;;;5093903;28;20220;-79
2023/12/04 11:24:14;;;;;;;11.50;3.20;;;;;;;;;;5094055;28;20294;-78
2023/12/04 11:26:42;;;;;;;15.53;4.13;;;;;;;;;;5093965;28;20289;-78
2023/12/04 11:29:10;;;;;;;13.10;4.27;;;;;;;;;;5093792;28;20316;-77
2023/12/04 11:31:38;;;;;;;11.97;3.50;;;;;;;;;;5093635;28;20904;-78
2023/12/04 11:34:05;;;;;;;6.90;3.17;;;;;;;;;;5094324;28;20277;-78
2023/12/04 11:36:35;;;;;;;15.00;3.87;;;;;;;;;;5075446;28;20216;-78
2023/12/04 11:39:03;;;;;;;13.83;4.03;;;;;;;;;;5093548;28;20710;-77
2023/12/04 11:41:31;;;;;;;12.10;3.60;;;;;;;;;;5094008;28;20195;-77
2023/12/04 11:43:58;;;;;;;10.23;3.07;;;;;;;;;;5093563;28;20289;-78
2023/12/04 11:46:26;;;;;;;11.87;3.17;;;;;;;;;;5093213;28;20198;-78
2023/12/04 11:48:55;;;;;;;11.50;3.40;;;;;;;;;;5093315;28;20229;-78
2023/12/04 11:51:37;;;;;;;8.30;2.37;;;;;;;;;;5093474;28;20644;-78
2023/12/04 11:54:06;;;;;;;10.90;2.57;;;;;;;;;;5076679;28;20625;-78
2023/12/04 11:56:33;;;;;;;12.37;2.87;;;;;;;;;;5093784;28;20635;-77
2023/12/04 11:59:04;;;;;;;9.53;2.60;;;;;;;;;;5093292;28;20272;-78
2023/12/04 12:01:34;;;;;;;11.00;2.33;;;;;;;;;;5092873;28;20813;-78
2023/12/04 12:04:02;;;;;;;9.17;2.23;;;;;;;;;;5093077;28;20221;-78
2023/12/04 12:06:29;;;;;;;7.50;1.97;;;;;;;;;;5093365;28;20202;-77
2023/12/04 12:08:57;;;;;;;8.63;1.90;;;;;;;;;;5093099;28;20320;-78
2023/12/04 12:11:26;;;;;;;7.80;2.30;;;;;;;;;;5093379;28;20285;-78
2023/12/04 12:13:54;;;;;;;7.77;2.40;;;;;;;;;;5093276;28;20198;-79
2023/12/04 12:16:21;;;;;;;9.20;2.47;;;;;;;;;;5093019;28;20297;-77
2023/12/04 12:18:49;;;;;;;11.17;2.40;;;;;;;;;;5093262;28;20196;-78
2023/12/04 12:21:16;;;;;;;9.77;2.40;;;;;;;;;;5092920;28;20195;-78
2023/12/04 12:23:44;;;;;;;7.07;2.30;;;;;;;;;;5092677;28;20194;-78
2023/12/04 12:26:11;;;;;;;12.10;3.70;;;;;;;;;;5093132;28;20210;-77
2023/12/04 12:28:39;;;;;;;12.07;4.73;;;;;;;;;;5092592;28;20236;-78
2023/12/04 12:31:07;;;;;;;13.07;4.33;;;;;;;;;;5093239;28;20222;-78
2023/12/04 12:33:34;;;;;;;11.20;3.90;;;;;;;;;;5092700;28;20281;-78
2023/12/04 12:36:03;;;;;;;10.40;4.10;;;;;;;;;;5092614;28;20222;-77
2023/12/04 12:38:34;;;;;;;9.90;3.10;;;;;;;;;;5092445;28;20204;-77
2023/12/04 12:41:01;;;;;;;12.03;3.00;;;;;;;;;;5092268;28;20199;-78
2023/12/04 12:43:29;;;;;;;7.40;2.67;;;;;;;;;;5092627;28;20638;-78
2023/12/04 12:45:57;;;;;;;10.47;3.03;;;;;;;;;;5092432;28;20309;-79
2023/12/04 12:48:24;;;;;;;8.67;2.20;;;;;;;;;;5092081;28;20279;-78
2023/12/04 12:50:52;;;;;;;10.37;2.70;;;;;;;;;;5092456;28;20289;-78
2023/12/04 12:53:19;;;;;;;8.60;2.70;;;;;;;;;;5092882;28;20297;-77
2023/12/04 12:55:47;;;;;;;6.67;3.20;;;;;;;;;;5092414;28;20568;-78
2023/12/04 12:58:15;;;;;;;10.27;3.30;;;;;;;;;;5091993;28;20281;-78
2023/12/04 13:00:42;;;;;;;8.87;3.87;;;;;;;;;;5091979;28;20230;-78
2023/12/04 13:03:16;;;;;;;9.80;3.13;;;;;;;;;;5091586;28;20195;-77
2023/12/04 13:05:43;;;;;;;10.80;3.80;;;;;;;;;;5091941;28;20757;-78
2023/12/04 13:08:11;;;;;;;5.77;3.13;;;;;;;;;;5092060;28;20325;-79
2023/12/04 13:10:38;;;;;;;12.83;3.90;;;;;;;;;;5092141;28;20281;-79
2023/12/04 13:13:05;;;;;;;11.60;4.00;;;;;;;;;;5091756;28;20293;-78
2023/12/04 13:15:33;;;;;;;11.30;4.20;;;;;;;;;;5092131;28;20221;-78
2023/12/04 13:18:00;;;;;;;10.83;3.53;;;;;;;;;;5091585;28;20277;-79
2023/12/04 13:20:29;;;;;;;8.87;3.67;;;;;;;;;;5091546;28;20626;-78
2023/12/04 13:22:56;;;;;;;7.10;4.10;;;;;;;;;;5092286;28;20195;-78
2023/12/04 13:25:23;;;;;;;9.93;3.43;;;;;;;;;;5091939;28;20293;-77
2023/12/04 13:27:50;;;;;;;8.03;3.07;;;;;;;;;;5091561;28;20593;-78
2023/12/04 13:30:17;;;;;;;9.77;3.20;;;;;;;;;;5092082;28;20214;-78
2023/12/04 13:32:45;;;;;;;7.43;2.97;;;;;;;;;;5091649;28;20195;-78
2023/12/04 13:35:12;;;;;;;7.53;2.27;;;;;;;;;;5090997;28;20306;-78
2023/12/04 13:37:41;;;;;;;7.13;1.67;;;;;;;;;;5092050;28;20570;-79
2023/12/04 13:40:12;;;;;;;7.30;1.50;;;;;;;;;;5091759;28;20203;-78
2023/12/04 13:45:24;;;;;;;5.13;1.10;;;;;;;;;;5091710;28;20201;-78
2023/12/04 13:47:53;;;;;;;6.80;1.50;;;;;;;;;;5091467;28;20248;-78
2023/12/04 13:50:20;;;;;;;7.13;1.57;;;;;;;;;;5091672;28;20198;-78
2023/12/04 13:52:55;;;;;;;6.80;1.10;;;;;;;;;;5091987;28;20194;-79
2023/12/04 13:55:36;;;;;;;7.50;1.50;;;;;;;;;;5091509;28;20197;-78
2023/12/04 13:58:10;;;;;;;7.80;1.20;;;;;;;;;;5091709;28;20379;-78
2023/12/04 14:00:37;;;;;;;7.87;1.50;;;;;;;;;;5091287;28;20338;-78
2023/12/04 14:03:04;;;;;;;5.83;1.63;;;;;;;;;;5091473;28;20658;-78
2023/12/04 14:05:32;;;;;;;5.63;1.30;;;;;;;;;;5091515;28;20722;-78
2023/12/04 14:08:00;;;;;;;5.90;1.17;;;;;;;;;;5091437;28;20277;-78
2023/12/04 14:10:27;;;;;;;8.00;1.20;;;;;;;;;;5090862;28;20237;-78
2023/12/04 14:12:55;;;;;;;8.33;1.20;;;;;;;;;;5091167;28;20633;-78
2023/12/04 14:15:22;;;;;;;5.17;1.13;;;;;;;;;;5091008;28;20237;-78
2023/12/04 14:17:49;;;;;;;5.70;1.20;;;;;;;;;;5091634;28;20190;-78
2023/12/04 14:20:18;;;;;;;6.73;1.30;;;;;;;;;;5091209;28;20286;-78
2023/12/04 14:22:46;;;;;;;5.47;1.37;;;;;;;;;;5091308;28;20198;-78
2023/12/04 14:25:14;;;;;;;4.30;1.10;;;;;;;;;;5090920;28;20592;-78
2023/12/04 14:27:43;;;;;;;4.50;0.90;;;;;;;;;;5091152;28;20286;-77
2023/12/04 14:30:11;;;;;;;6.77;1.43;;;;;;;;;;5091328;28;20262;-77
2023/12/04 14:32:38;;;;;;;7.47;1.10;;;;;;;;;;5091120;28;20293;-78
2023/12/04 14:35:07;;;;;;;9.63;1.40;;;;;;;;;;5091335;28;20282;-77
2023/12/04 14:37:34;;;;;;;5.00;1.30;;;;;;;;;;5091453;28;20206;-76
2023/12/04 14:40:01;;;;;;;6.07;1.10;;;;;;;;;;5090802;28;20203;-78
2023/12/04 14:42:30;;;;;;;3.47;1.00;;;;;;;;;;5091410;28;20213;-78
2023/12/04 14:44:57;;;;;;;1.97;0.80;;;;;;;;;;5091560;28;20285;-79
2023/12/04 14:47:24;;;;;;;5.07;0.80;;;;;;;;;;5094666;28;20796;-79